Grande Prairie Airport
CYQU : now visible

Aeroporto :











RITROVATECI SU...

 
LOGIN :

Iscrizione | Disclaimer

   EN    FR    IT 

 









Sommario :    VFR   VFR Marginale   IFR   IFR Intensivo   IFR Molto Intensivo
Visibilità : 
Base nubi : 
>= 8 km
>= 3000ft
5 / 8 km
1000 / 3000 ft
1500m / 5 km
500 / 1000 ft
800 / 1500m
200 / 500 ft
< 800m
< 200 ft
Simboli :   Temporali  Nebbia  Neve Forte  Precipitazioni Forti  Vento > 20 kt






- Altitudine del aeroporto : 2195 ft
- Codice IATA : YQU


CYQU - Grande Prairie

ULTIMO METAR :
  • 280500Z 24014KT 25SM SKC 04/M01 A2977 RMK SLP110

METARs OBSOLETI :
  • 280400Z 22011G16KT 25SM SKC 03/M01 A2977 RMK SLP108
  • 280300Z 22014KT 25SM SKC 04/M01 A2977 RMK SLP109

TAF TAF CYQU
Valido dal 28 a 01 ore il 28 a 13 ore UTC


280038Z 2801/2813 22010KT P6SM BKN090
TEMPO 2801/2803 SCT090
FM280300 24012G22KT P6SM SCT070
BECMG 2804/2806 25020G35KT
BECMG 2809/2811 25018G28KT RMK NXT FCST BY 280700Z



MetMap, La meteo Aeronautica in un colpo d'occhio ! - Copyright ORBIFLY Dicembre 2007 - Disclaimer

ORBIFLY MET'MAP TEAM :

Programmazione e sviluppo : Alexandra Zaïnal
Concezione : Baudouin d'Aumeries
Aiuto per la programmazione : Marc-Olivier Méhu
Supporto tecnico e logistico : Manuel Goepfert
Aiuto per la traduzione : Arnaldo La Scala

Contatto : metmap@orbifly.com




FONTI E CREDITI :

   NOAA       Earth
Advisory